createdAt,value
2019-04-30T00:02:17.742Z,5.93
2019-04-30T00:04:48.869Z,7.40
2019-04-30T00:07:19.177Z,6.30
2019-04-30T00:09:49.219Z,6.33
2019-04-30T00:12:20.438Z,6.57
2019-04-30T00:14:49.613Z,6.10
2019-04-30T00:17:19.801Z,7.43
2019-04-30T00:19:50.392Z,6.90
2019-04-30T00:22:31.035Z,7.07
2019-04-30T00:24:50.950Z,5.83
2019-04-30T00:27:21.121Z,8.00
2019-04-30T00:29:50.998Z,9.03
2019-04-30T00:32:20.349Z,5.87
2019-04-30T00:34:49.535Z,8.73
2019-04-30T00:37:19.060Z,7.20
2019-04-30T00:39:50.839Z,9.07
2019-04-30T00:42:24.484Z,6.37
2019-04-30T00:44:49.981Z,6.73
2019-04-30T00:47:19.190Z,6.00
2019-04-30T00:49:52.233Z,8.30
2019-04-30T00:52:19.169Z,7.70
2019-04-30T00:54:48.254Z,7.83
2019-04-30T00:57:17.675Z,7.27
2019-04-30T00:59:48.079Z,7.40
2019-04-30T01:02:36.453Z,9.20
2019-04-30T01:05:10.537Z,6.43
2019-04-30T01:07:48.003Z,5.93
2019-04-30T01:10:12.201Z,6.20
2019-04-30T01:12:47.087Z,6.77
2019-04-30T01:15:14.525Z,7.07
2019-04-30T01:17:45.336Z,6.47
2019-04-30T01:20:13.835Z,10.20
2019-04-30T01:22:43.001Z,7.87
2019-04-30T01:25:13.477Z,6.27
2019-04-30T01:27:45.740Z,6.43
2019-04-30T01:30:18.729Z,9.47
2019-04-30T01:32:52.147Z,7.37
2019-04-30T01:35:18.652Z,10.50
2019-04-30T01:37:48.769Z,8.13
2019-04-30T01:40:19.021Z,5.40
2019-04-30T01:42:51.802Z,6.40
2019-04-30T01:45:23.131Z,6.10
2019-04-30T01:47:50.257Z,8.10
2019-04-30T01:50:19.538Z,5.90
2019-04-30T01:52:54.875Z,6.93
2019-04-30T01:55:39.006Z,6.70
2019-04-30T01:58:19.380Z,7.73
2019-04-30T02:00:52.027Z,6.93
2019-04-30T02:03:21.210Z,8.13
2019-04-30T02:05:50.379Z,7.60
2019-04-30T02:08:19.747Z,7.60
2019-04-30T02:10:51.316Z,6.90
2019-04-30T02:13:19.941Z,7.97
2019-04-30T02:15:49.317Z,7.60
2019-04-30T02:18:19.522Z,7.43
2019-04-30T02:20:49.653Z,7.47
2019-04-30T02:23:19.588Z,9.13
2019-04-30T02:25:49.117Z,9.00
2019-04-30T02:28:19.021Z,10.53
2019-04-30T02:30:50.411Z,8.27
2019-04-30T02:33:20.158Z,6.50
2019-04-30T02:36:06.537Z,5.57
2019-04-30T02:38:39.598Z,6.30
2019-04-30T02:41:09.864Z,7.77
2019-04-30T02:43:39.909Z,6.63
2019-04-30T02:46:09.714Z,6.17
2019-04-30T02:48:39.933Z,6.27
2019-04-30T02:51:10.172Z,8.13
2019-04-30T02:54:09.538Z,6.10
2019-04-30T02:56:40.054Z,7.97
2019-04-30T02:59:10.426Z,6.77
2019-04-30T03:01:40.401Z,11.13
2019-04-30T03:04:10.224Z,7.30
2019-04-30T03:06:40.279Z,7.80
2019-04-30T03:09:10.667Z,8.93
2019-04-30T03:11:40.951Z,7.40
2019-04-30T03:14:10.978Z,7.63
2019-04-30T03:17:01.967Z,8.30
2019-04-30T03:19:50.190Z,9.33
2019-04-30T03:22:21.065Z,8.83
2019-04-30T03:24:50.346Z,9.73
2019-04-30T03:27:20.660Z,10.13
2019-04-30T03:29:50.780Z,10.00
2019-04-30T03:32:22.127Z,8.07
2019-04-30T03:34:51.973Z,8.50
2019-04-30T03:37:21.463Z,8.30
2019-04-30T03:39:50.622Z,11.50
2019-04-30T03:42:20.103Z,8.83
2019-04-30T03:44:49.670Z,12.30
2019-04-30T03:47:20.138Z,9.77
2019-04-30T03:49:50.065Z,9.10
2019-04-30T03:52:20.021Z,14.20
2019-04-30T03:54:49.615Z,11.13
2019-04-30T03:57:20.569Z,14.90
2019-04-30T03:59:50.107Z,10.53
2019-04-30T04:02:40.517Z,11.33
2019-04-30T04:05:20.153Z,11.20
2019-04-30T04:08:09.417Z,9.27
2019-04-30T04:11:02.649Z,11.87
2019-04-30T04:13:33.113Z,13.00
2019-04-30T04:16:02.743Z,10.27
2019-04-30T04:18:32.002Z,12.47
2019-04-30T04:21:12.123Z,10.60
2019-04-30T04:23:32.889Z,12.73
2019-04-30T04:26:02.362Z,13.23
2019-04-30T04:28:31.568Z,11.97
2019-04-30T04:31:00.837Z,13.23
2019-04-30T04:33:29.960Z,12.63
2019-04-30T04:35:59.741Z,12.87
2019-04-30T04:38:30.337Z,13.60
2019-04-30T04:41:03.083Z,14.50
2019-04-30T04:43:30.567Z,15.10
2019-04-30T04:45:59.755Z,13.00
2019-04-30T04:48:29.767Z,11.20
2019-04-30T04:51:00.127Z,14.77
2019-04-30T04:53:30.433Z,12.83
2019-04-30T04:55:59.991Z,18.93
2019-04-30T04:58:30.226Z,11.90
2019-04-30T05:00:59.655Z,14.93
2019-04-30T05:03:34.762Z,11.37
2019-04-30T05:06:03.934Z,13.00
2019-04-30T05:08:33.110Z,11.43
2019-04-30T05:11:02.246Z,7.90
2019-04-30T05:13:31.391Z,9.63
2019-04-30T05:16:00.586Z,10.93
2019-04-30T05:18:29.750Z,11.47
2019-04-30T05:20:59.117Z,11.00
2019-04-30T05:23:29.890Z,9.73
2019-04-30T05:25:59.093Z,8.90
2019-04-30T05:28:29.981Z,11.60
2019-04-30T05:30:59.449Z,10.47
2019-04-30T05:33:28.862Z,11.87
2019-04-30T05:35:59.433Z,9.83
2019-04-30T05:38:31.232Z,11.93
2019-04-30T05:40:59.693Z,9.57
2019-04-30T05:43:29.035Z,10.20
2019-04-30T05:45:58.785Z,9.03
2019-04-30T05:48:28.577Z,10.00
2019-04-30T05:50:59.137Z,9.93
2019-04-30T05:53:28.796Z,11.77
2019-04-30T05:55:59.393Z,12.37
2019-04-30T05:58:30.017Z,8.87
2019-04-30T06:00:59.784Z,9.13
2019-04-30T06:03:33.066Z,10.70
2019-04-30T06:06:01.254Z,10.85
2019-04-30T06:08:39.295Z,6.20
2019-04-30T06:11:30.579Z,4.10
2019-04-30T06:14:28.675Z,6.27
2019-04-30T06:17:09.746Z,11.47
2019-04-30T06:19:39.347Z,8.30
2019-04-30T06:22:10.790Z,5.83
2019-04-30T06:24:39.651Z,8.50
2019-04-30T06:27:10.786Z,8.47
2019-04-30T06:29:39.778Z,9.27
2019-04-30T06:32:08.894Z,9.93
2019-04-30T06:34:41.607Z,7.90
2019-04-30T06:37:09.627Z,6.43
2019-04-30T06:39:39.234Z,9.90
2019-04-30T06:42:12.676Z,8.03
2019-04-30T06:44:41.845Z,5.33
2019-04-30T06:47:10.265Z,9.73
2019-04-30T06:49:39.433Z,6.73
2019-04-30T06:52:20.253Z,6.30
2019-04-30T06:54:39.832Z,4.40
2019-04-30T06:57:11.807Z,6.03
2019-04-30T06:59:40.025Z,3.87
2019-04-30T07:02:09.316Z,4.13
2019-04-30T07:04:40.172Z,5.53
2019-04-30T07:07:09.759Z,6.10
2019-04-30T07:09:58.389Z,6.47
2019-04-30T07:12:39.063Z,4.50
2019-04-30T07:15:08.695Z,5.83
2019-04-30T07:17:40.485Z,6.07
2019-04-30T07:20:10.460Z,5.23
2019-04-30T07:22:45.198Z,4.97
2019-04-30T07:25:10.453Z,6.33
2019-04-30T07:27:40.178Z,8.13
2019-04-30T07:30:10.092Z,4.73
2019-04-30T07:32:43.911Z,7.47
2019-04-30T07:35:13.114Z,6.47
2019-04-30T07:37:42.306Z,6.87
2019-04-30T07:40:11.505Z,6.17
2019-04-30T07:42:44.856Z,6.93
2019-04-30T07:45:11.454Z,6.73
2019-04-30T07:47:40.646Z,9.17
2019-04-30T07:50:10.713Z,8.83
2019-04-30T07:52:57.700Z,5.13
2019-04-30T07:55:11.362Z,5.97
2019-04-30T07:57:40.657Z,7.97
2019-04-30T08:00:10.523Z,8.43
2019-04-30T08:02:45.046Z,8.30
2019-04-30T08:05:20.206Z,7.43
2019-04-30T08:07:49.399Z,9.07
2019-04-30T08:10:19.114Z,9.03
2019-04-30T08:12:50.593Z,7.80
2019-04-30T08:15:19.769Z,7.70
2019-04-30T08:18:02.270Z,7.83
2019-04-30T08:20:39.352Z,7.53
2019-04-30T08:23:20.183Z,10.60
2019-04-30T08:25:39.534Z,5.63
2019-04-30T08:28:09.366Z,7.60
2019-04-30T08:30:39.178Z,8.10
2019-04-30T08:33:09.405Z,6.40
2019-04-30T08:35:39.800Z,5.40
2019-04-30T08:38:10.786Z,5.90
2019-04-30T08:40:52.804Z,6.77
2019-04-30T08:43:11.149Z,8.40
2019-04-30T08:45:40.245Z,7.00
2019-04-30T08:48:09.353Z,6.70
2019-04-30T08:50:39.414Z,10.17
2019-04-30T08:53:10.905Z,7.83
2019-04-30T08:55:39.989Z,7.57
2019-04-30T08:58:12.525Z,11.97
2019-04-30T09:00:40.139Z,9.33
2019-04-30T09:03:09.456Z,9.97
2019-04-30T09:06:16.232Z,6.70
2019-04-30T09:08:46.307Z,7.93
2019-04-30T09:11:24.655Z,7.07
2019-04-30T09:13:46.342Z,8.33
2019-04-30T09:16:15.710Z,6.27
2019-04-30T09:18:44.933Z,7.87
2019-04-30T09:21:14.193Z,6.13
2019-04-30T09:23:50.000Z,6.93
2019-04-30T09:26:14.182Z,8.77
2019-04-30T09:28:43.357Z,10.13
2019-04-30T09:31:12.557Z,8.03
2019-04-30T09:33:41.650Z,7.70
2019-04-30T09:36:10.762Z,8.33
2019-04-30T09:38:39.946Z,8.30
2019-04-30T09:41:09.410Z,6.70
2019-04-30T09:43:40.476Z,6.77
2019-04-30T09:46:22.159Z,6.07
2019-04-30T09:48:40.629Z,6.10
2019-04-30T09:51:11.002Z,5.63
2019-04-30T09:53:40.917Z,6.63
2019-04-30T09:56:10.154Z,6.87
2019-04-30T09:58:39.418Z,7.17
2019-04-30T10:01:09.444Z,6.70
2019-04-30T10:03:39.492Z,5.30
2019-04-30T10:06:09.306Z,5.93
2019-04-30T10:08:47.809Z,8.57
2019-04-30T10:11:31.075Z,8.27
2019-04-30T10:14:00.238Z,8.30
2019-04-30T10:16:51.650Z,8.37
2019-04-30T10:19:20.857Z,8.60
2019-04-30T10:21:50.029Z,6.87
2019-04-30T10:24:19.729Z,7.13
2019-04-30T10:26:49.096Z,9.93
2019-04-30T10:29:19.069Z,8.30
2019-04-30T10:31:48.989Z,7.63
2019-04-30T10:34:18.373Z,7.40
2019-04-30T10:36:49.464Z,8.47
2019-04-30T10:39:19.179Z,5.73
2019-04-30T10:41:49.174Z,6.80
2019-04-30T10:44:18.780Z,9.53
2019-04-30T10:46:48.125Z,6.87
2019-04-30T10:49:19.209Z,9.07
2019-04-30T10:51:48.170Z,7.33
2019-04-30T10:54:25.724Z,9.07
2019-04-30T10:56:49.087Z,7.63
2019-04-30T10:59:19.237Z,7.30
2019-04-30T11:01:49.291Z,9.07
2019-04-30T11:04:19.554Z,8.20
2019-04-30T11:06:48.773Z,7.30
2019-04-30T11:09:17.969Z,10.33
2019-04-30T11:11:47.140Z,7.07
2019-04-30T11:14:16.431Z,5.63
2019-04-30T11:16:45.752Z,7.20
2019-04-30T11:19:15.376Z,8.07
2019-04-30T11:21:44.919Z,8.50
2019-04-30T11:24:14.331Z,11.20
2019-04-30T11:26:44.605Z,8.17
2019-04-30T11:29:14.482Z,8.43
2019-04-30T11:32:01.948Z,11.47
2019-04-30T11:34:31.315Z,11.43
2019-04-30T11:37:00.483Z,7.47
2019-04-30T11:39:29.927Z,11.03
2019-04-30T11:41:59.046Z,9.00
2019-04-30T11:44:31.335Z,8.53
2019-04-30T11:47:30.060Z,6.30
2019-04-30T11:49:59.234Z,9.60
2019-04-30T11:52:28.410Z,7.63
2019-04-30T11:54:59.492Z,6.47
2019-04-30T11:57:29.793Z,4.93
2019-04-30T11:59:59.373Z,12.47
2019-04-30T12:02:33.110Z,8.63
2019-04-30T12:05:05.039Z,11.10
2019-04-30T12:08:00.175Z,8.83
2019-04-30T12:11:00.536Z,9.43
2019-04-30T12:13:31.180Z,8.77
2019-04-30T12:16:00.363Z,9.20
2019-04-30T12:18:29.542Z,6.53
2019-04-30T12:20:58.642Z,7.70
2019-04-30T12:23:27.824Z,8.33
2019-04-30T12:25:59.407Z,9.73
2019-04-30T12:28:29.551Z,8.33
2019-04-30T12:30:58.925Z,8.63
2019-04-30T12:33:28.469Z,11.53
2019-04-30T12:35:59.598Z,7.10
2019-04-30T12:38:29.907Z,7.30
2019-04-30T12:40:59.167Z,8.17
2019-04-30T12:43:28.337Z,6.33
2019-04-30T12:46:03.307Z,8.80
2019-04-30T12:48:40.291Z,6.17
2019-04-30T12:51:28.166Z,7.70
2019-04-30T12:54:01.175Z,5.63
2019-04-30T12:56:39.154Z,6.37
2019-04-30T12:59:08.334Z,7.87
2019-04-30T13:01:39.761Z,8.23
2019-04-30T13:04:09.826Z,6.43
2019-04-30T13:06:39.401Z,6.90
2019-04-30T13:09:11.242Z,6.53
2019-04-30T13:11:41.482Z,10.30
2019-04-30T13:14:11.726Z,7.27
2019-04-30T13:16:41.497Z,7.10
2019-04-30T13:19:10.654Z,8.93
2019-04-30T13:21:39.818Z,7.53
2019-04-30T13:24:09.039Z,6.67
2019-04-30T13:26:39.685Z,8.40
2019-04-30T13:29:14.170Z,7.23
2019-04-30T13:31:43.346Z,7.30
2019-04-30T13:34:30.112Z,7.20
2019-04-30T13:36:59.422Z,7.53
2019-04-30T13:39:33.931Z,6.30
2019-04-30T13:42:20.438Z,7.77
2019-04-30T13:44:49.353Z,6.27
2019-04-30T13:47:19.248Z,10.17
2019-04-30T13:49:49.528Z,12.33
2019-04-30T13:52:19.372Z,8.80
2019-04-30T13:54:48.583Z,8.53
2019-04-30T13:57:17.746Z,9.33
2019-04-30T13:59:46.863Z,8.37
2019-04-30T14:02:15.953Z,8.30
2019-04-30T14:05:04.090Z,11.10
2019-04-30T14:07:59.842Z,10.37
2019-04-30T14:10:30.688Z,9.57
2019-04-30T14:13:01.324Z,8.57
2019-04-30T14:15:30.490Z,7.53
2019-04-30T14:17:59.780Z,9.37
2019-04-30T14:20:28.950Z,9.67
2019-04-30T14:22:58.175Z,11.30
2019-04-30T14:25:27.360Z,7.90
2019-04-30T14:27:56.518Z,9.77
2019-04-30T14:30:25.681Z,7.87
2019-04-30T14:32:54.875Z,11.07
2019-04-30T14:35:24.050Z,13.37
2019-04-30T14:37:53.228Z,8.93
2019-04-30T14:40:22.980Z,10.40
2019-04-30T14:43:09.870Z,10.70
2019-04-30T14:45:47.900Z,10.33
2019-04-30T14:48:24.477Z,11.27
2019-04-30T14:50:54.290Z,10.27
2019-04-30T14:53:30.554Z,8.57
2019-04-30T14:56:34.010Z,10.87
2019-04-30T14:59:25.130Z,8.97
2019-04-30T15:02:02.521Z,10.07
2019-04-30T15:04:31.699Z,12.77
2019-04-30T15:07:00.789Z,9.77
2019-04-30T15:09:29.978Z,9.23
2019-04-30T15:11:59.254Z,9.70
2019-04-30T15:14:28.342Z,10.83
2019-04-30T15:16:57.457Z,10.23
2019-04-30T15:19:26.550Z,10.70
2019-04-30T15:21:55.657Z,10.90
2019-04-30T15:24:29.410Z,12.30
2019-04-30T15:26:58.566Z,13.67
2019-04-30T15:29:29.095Z,11.27
2019-04-30T15:31:59.300Z,11.03
2019-04-30T15:34:29.376Z,11.03
2019-04-30T15:36:59.169Z,14.00
2019-04-30T15:39:39.493Z,13.27
2019-04-30T15:42:08.953Z,21.93
2019-04-30T15:44:45.376Z,11.90
2019-04-30T15:47:09.283Z,17.43
2019-04-30T15:49:38.549Z,16.27
2019-04-30T15:52:21.516Z,11.53
2019-04-30T15:54:50.754Z,14.47
2019-04-30T15:57:19.958Z,11.73
2019-04-30T15:59:49.157Z,13.70
2019-04-30T16:02:53.683Z,10.07
2019-04-30T16:05:32.131Z,18.27
2019-04-30T16:08:10.474Z,15.53
2019-04-30T16:11:10.406Z,10.53
2019-04-30T16:13:56.132Z,12.40
2019-04-30T16:16:27.427Z,12.83
2019-04-30T16:18:56.638Z,16.10
2019-04-30T16:21:25.842Z,16.90
2019-04-30T16:23:55.070Z,10.93
2019-04-30T16:26:24.318Z,10.07
2019-04-30T16:28:53.522Z,11.33
2019-04-30T16:31:22.786Z,12.87
2019-04-30T16:33:51.998Z,12.60
2019-04-30T16:36:21.201Z,10.97
2019-04-30T16:38:51.279Z,11.23
2019-04-30T16:41:31.170Z,12.23
2019-04-30T16:43:51.362Z,13.83
2019-04-30T16:46:20.537Z,12.77
2019-04-30T16:48:49.641Z,11.73
2019-04-30T16:51:18.936Z,11.97
2019-04-30T16:53:48.681Z,14.80
2019-04-30T16:56:18.605Z,15.20
2019-04-30T16:59:00.143Z,14.67
2019-04-30T17:01:29.892Z,12.30
2019-04-30T17:04:11.132Z,13.80
2019-04-30T17:06:43.113Z,14.00
2019-04-30T17:09:18.349Z,14.07
2019-04-30T17:12:05.189Z,14.10
2019-04-30T17:14:35.337Z,15.57
2019-04-30T17:17:04.581Z,13.23
2019-04-30T17:19:33.778Z,16.10
2019-04-30T17:22:02.954Z,16.33
2019-04-30T17:24:32.178Z,14.43
2019-04-30T17:27:01.290Z,15.53
2019-04-30T17:29:30.486Z,12.37
2019-04-30T17:31:59.678Z,14.33
2019-04-30T17:34:30.806Z,14.23
2019-04-30T17:36:59.678Z,15.17
2019-04-30T17:39:29.062Z,17.37
2019-04-30T17:41:58.250Z,13.37
2019-04-30T17:44:28.937Z,14.33
2019-04-30T17:46:59.977Z,12.57
2019-04-30T17:49:28.962Z,15.57
2019-04-30T17:51:59.179Z,15.97
2019-04-30T17:54:28.514Z,14.10
2019-04-30T17:56:57.722Z,16.23
2019-04-30T17:59:26.893Z,14.13
2019-04-30T18:02:00.278Z,15.10
2019-04-30T18:04:29.813Z,14.27
2019-04-30T18:07:05.131Z,14.00
2019-04-30T18:09:34.438Z,17.03
2019-04-30T18:12:03.626Z,13.97
2019-04-30T18:14:32.889Z,12.60
2019-04-30T18:17:02.098Z,13.40
2019-04-30T18:19:50.219Z,13.57
2019-04-30T18:22:33.506Z,13.23
2019-04-30T18:25:12.016Z,13.10
2019-04-30T18:27:49.461Z,15.70
2019-04-30T18:30:21.516Z,12.67
2019-04-30T18:32:50.715Z,13.70
2019-04-30T18:35:20.394Z,14.07
2019-04-30T18:37:49.922Z,15.50
2019-04-30T18:40:19.235Z,16.37
2019-04-30T18:42:49.438Z,17.80
2019-04-30T18:45:19.521Z,19.10
2019-04-30T18:47:48.925Z,22.50
2019-04-30T18:50:18.338Z,16.60
2019-04-30T18:52:50.361Z,17.40
2019-04-30T18:55:19.273Z,14.20
2019-04-30T18:57:56.312Z,18.53
2019-04-30T19:00:29.388Z,16.73
2019-04-30T19:02:58.697Z,16.73
2019-04-30T19:05:29.393Z,20.57
2019-04-30T19:08:04.458Z,19.17
2019-04-30T19:10:53.722Z,21.87
2019-04-30T19:13:50.968Z,18.57
2019-04-30T19:16:30.723Z,21.73
2019-04-30T19:19:09.387Z,19.87
2019-04-30T19:21:40.416Z,19.03
2019-04-30T19:24:09.816Z,17.03
2019-04-30T19:26:38.993Z,19.40
2019-04-30T19:29:08.182Z,17.83
2019-04-30T19:31:39.364Z,19.77
2019-04-30T19:34:09.759Z,19.20
2019-04-30T19:36:40.729Z,20.73
2019-04-30T19:39:11.706Z,20.73
2019-04-30T19:41:40.930Z,18.27
2019-04-30T19:44:10.123Z,19.37
2019-04-30T19:46:39.274Z,19.20
2019-04-30T19:49:09.801Z,21.27
2019-04-30T19:51:40.203Z,17.90
2019-04-30T19:54:11.361Z,18.40
2019-04-30T19:56:40.651Z,20.43
2019-04-30T19:59:09.894Z,19.53
2019-04-30T20:01:39.195Z,22.23
2019-04-30T20:04:09.825Z,19.73
2019-04-30T20:06:39.122Z,22.47
2019-04-30T20:09:08.918Z,21.87
2019-04-30T20:11:39.798Z,17.53
2019-04-30T20:14:10.432Z,19.23
2019-04-30T20:16:40.264Z,17.53
2019-04-30T20:19:09.591Z,16.47
2019-04-30T20:21:48.141Z,18.37
2019-04-30T20:24:09.781Z,18.63
2019-04-30T20:26:39.101Z,19.03
2019-04-30T20:29:08.974Z,20.03
2019-04-30T20:31:38.627Z,21.57
2019-04-30T20:34:09.157Z,22.60
2019-04-30T20:36:38.875Z,20.57
2019-04-30T20:39:26.144Z,20.13
2019-04-30T20:41:55.825Z,18.37
2019-04-30T20:44:25.025Z,21.27
2019-04-30T20:46:54.197Z,19.30
2019-04-30T20:49:23.317Z,19.07
2019-04-30T20:51:55.719Z,20.53
2019-04-30T20:54:24.213Z,21.07
2019-04-30T20:56:53.397Z,17.13
2019-04-30T20:59:22.583Z,20.63
2019-04-30T21:01:51.691Z,20.33
2019-04-30T21:04:21.055Z,18.73
2019-04-30T21:06:50.286Z,20.53
2019-04-30T21:09:19.589Z,20.50
2019-04-30T21:11:49.048Z,19.83
2019-04-30T21:14:19.270Z,21.60
2019-04-30T21:16:48.666Z,21.50
2019-04-30T21:19:18.034Z,25.10
2019-04-30T21:21:47.221Z,24.93
2019-04-30T21:24:16.446Z,22.43
2019-04-30T21:26:45.688Z,25.57
2019-04-30T21:29:16.053Z,26.07
2019-04-30T21:32:21.169Z,24.87
2019-04-30T21:35:09.115Z,25.23
2019-04-30T21:37:38.333Z,26.10
2019-04-30T21:40:09.747Z,22.47
2019-04-30T21:42:38.374Z,28.57
2019-04-30T21:45:07.661Z,26.10
2019-04-30T21:47:36.821Z,29.90
2019-04-30T21:50:06.065Z,27.43
2019-04-30T21:52:35.249Z,30.33
2019-04-30T21:55:04.473Z,29.50
2019-04-30T21:57:33.570Z,30.70
2019-04-30T22:00:02.758Z,31.97
2019-04-30T22:02:32.098Z,31.53
2019-04-30T22:05:02.317Z,32.10
2019-04-30T22:07:31.494Z,33.17
2019-04-30T22:10:00.701Z,32.67
2019-04-30T22:12:31.171Z,35.30
2019-04-30T22:15:00.721Z,35.93
2019-04-30T22:17:29.909Z,35.73
2019-04-30T22:19:59.657Z,40.90
2019-04-30T22:22:29.215Z,40.83
2019-04-30T22:24:59.711Z,43.30
2019-04-30T22:27:29.089Z,37.47
2019-04-30T22:29:58.279Z,38.07
2019-04-30T22:32:27.486Z,38.73
2019-04-30T22:34:58.250Z,38.60
2019-04-30T22:37:27.350Z,35.60
2019-04-30T22:40:02.953Z,36.53
2019-04-30T22:42:33.106Z,37.10
2019-04-30T22:45:02.474Z,36.43
2019-04-30T22:47:31.690Z,38.50
2019-04-30T22:50:00.862Z,38.60
2019-04-30T22:52:30.031Z,40.03
2019-04-30T22:54:59.237Z,35.10
2019-04-30T22:57:28.422Z,34.43
2019-04-30T22:59:57.621Z,37.03
2019-04-30T23:02:45.673Z,38.43
2019-04-30T23:05:15.855Z,39.57
2019-04-30T23:07:45.037Z,40.40
2019-04-30T23:10:14.246Z,39.73
2019-04-30T23:12:43.494Z,37.50
2019-04-30T23:15:12.629Z,36.20
2019-04-30T23:17:41.879Z,33.70
2019-04-30T23:20:11.345Z,34.90
2019-04-30T23:22:40.529Z,37.20
2019-04-30T23:25:09.845Z,37.37
2019-04-30T23:27:39.022Z,36.13
2019-04-30T23:30:08.238Z,36.93
2019-04-30T23:32:37.478Z,39.63
2019-04-30T23:35:06.649Z,34.17
2019-04-30T23:37:35.829Z,36.10
2019-04-30T23:40:24.961Z,33.97
2019-04-30T23:42:54.249Z,33.30
2019-04-30T23:45:23.447Z,37.00
2019-04-30T23:47:52.713Z,35.70
2019-04-30T23:50:21.881Z,36.77
2019-04-30T23:52:51.057Z,35.20
2019-04-30T23:55:20.369Z,33.47
2019-04-30T23:57:49.625Z,33.03
